Time;durP1;ratioP1;P1;durP2;ratioP2;P2;SDS_P1;SDS_P2;PMS_P1;PMS_P2;Temp;Humidity;BMP_temperature;BMP_pressure;BME280_temperature;BME280_humidity;BME280_pressure;Samples;Min_cycle;Max_cycle;Signal;HPM_P1;HPM_P2
2021/08/25 00:01:10;;;;;;;2.67;1.30;;;16.80;94.40;;;;;;5054047;28;20178;-81
2021/08/25 00:03:36;;;;;;;5.00;1.57;;;16.80;94.60;;;;;;5053243;28;20572;-81
2021/08/25 00:06:02;;;;;;;2.83;1.07;;;16.70;94.80;;;;;;5053548;28;20595;-81
2021/08/25 00:08:27;;;;;;;2.37;1.00;;;16.70;94.90;;;;;;5053025;28;21118;-81
2021/08/25 00:10:53;;;;;;;2.13;1.37;;;16.70;95.10;;;;;;5034691;28;20165;-81
2021/08/25 00:13:20;;;;;;;2.20;1.27;;;16.70;95.40;;;;;;5035938;28;20631;-82
2021/08/25 00:15:46;;;;;;;2.13;1.40;;;16.60;95.60;;;;;;5053112;28;20216;-81
2021/08/25 00:18:12;;;;;;;2.70;1.30;;;16.60;95.90;;;;;;5053976;28;20599;-81
2021/08/25 00:20:39;;;;;;;2.00;1.20;;;16.60;96.00;;;;;;5053193;28;20162;-82
2021/08/25 00:23:05;;;;;;;2.07;1.40;;;16.60;96.20;;;;;;5053302;28;20659;-82
2021/08/25 00:25:32;;;;;;;2.23;1.50;;;16.60;96.30;;;;;;5053770;28;20571;-82
2021/08/25 00:27:58;;;;;;;2.43;1.37;;;16.60;96.50;;;;;;5058189;28;20579;-82
2021/08/25 00:30:24;;;;;;;3.27;2.03;;;16.60;96.60;;;;;;5055515;28;21034;-82
2021/08/25 00:32:50;;;;;;;2.50;1.33;;;16.50;96.80;;;;;;5035074;28;21044;-82
2021/08/25 00:35:15;;;;;;;1.90;1.10;;;16.50;97.00;;;;;;5053226;28;20169;-82
2021/08/25 00:37:41;;;;;;;2.60;1.20;;;16.50;97.30;;;;;;5035095;28;20599;-81
2021/08/25 00:40:07;;;;;;;3.17;1.20;;;16.50;97.50;;;;;;5053560;28;20924;-81
2021/08/25 00:42:33;;;;;;;2.35;1.20;;;16.50;97.50;;;;;;5052289;28;20173;-82
2021/08/25 00:45:07;;;;;;;2.10;1.00;;;16.40;97.60;;;;;;5053314;28;20191;-82
2021/08/25 00:47:40;;;;;;;2.90;1.13;;;16.40;97.90;;;;;;5053240;28;20690;-82
2021/08/25 00:50:08;;;;;;;2.13;1.27;;;16.40;97.80;;;;;;5053203;28;20614;-82
2021/08/25 00:52:41;;;;;;;2.53;1.33;;;16.30;97.90;;;;;;5051702;28;20623;-82
2021/08/25 00:55:14;;;;;;;3.33;1.33;;;16.30;98.20;;;;;;5053466;28;20571;-82
2021/08/25 00:57:45;;;;;;;2.77;1.10;;;16.30;98.20;;;;;;5052499;28;21012;-81
2021/08/25 01:00:12;;;;;;;3.30;1.33;;;16.30;98.50;;;;;;5053254;28;20662;-81
2021/08/25 01:03:09;;;;;;;2.53;1.40;;;16.30;98.50;;;;;;5034880;28;20985;-81
2021/08/25 01:05:37;;;;;;;5.80;1.40;;;16.30;99.20;;;;;;5055946;28;20560;-81
2021/08/25 01:08:04;;;;;;;2.95;1.05;;;16.20;98.90;;;;;;5052858;28;20971;-81
2021/08/25 01:10:32;;;;;;;3.63;1.37;;;16.20;99.00;;;;;;5035382;28;20180;-81
2021/08/25 01:13:06;;;;;;;3.28;1.25;;;16.20;99.20;;;;;;5051118;28;20723;-81
2021/08/25 01:15:39;;;;;;;2.20;1.00;;;16.20;99.50;;;;;;5051344;28;20164;-81
2021/08/25 01:18:12;;;;;;;2.33;1.38;;;16.20;99.80;;;;;;5051352;28;20560;-81
2021/08/25 01:20:39;;;;;;;2.00;1.20;;;16.20;99.80;;;;;;5053328;28;20161;-80
2021/08/25 01:23:05;;;;;;;4.63;1.33;;;16.20;99.80;;;;;;5052755;28;20599;-80
2021/08/25 01:25:33;;;;;;;2.67;1.67;;;16.10;99.90;;;;;;5052928;28;20643;-80
2021/08/25 01:28:07;;;;;;;3.53;1.50;;;16.10;99.90;;;;;;5052802;28;20971;-80
2021/08/25 01:30:35;;;;;;;2.30;1.20;;;16.10;99.90;;;;;;5052906;28;20573;-81
2021/08/25 01:33:01;;;;;;;4.13;1.57;;;16.10;99.90;;;;;;5035275;28;20903;-80
2021/08/25 01:35:38;;;;;;;2.90;1.47;;;16.10;99.90;;;;;;5052378;28;20607;-80
2021/08/25 01:38:09;;;;;;;3.30;1.70;;;16.10;99.90;;;;;;5050602;28;20594;-81
2021/08/25 01:40:35;;;;;;;2.77;1.50;;;16.10;99.90;;;;;;5051175;28;20568;-81
2021/08/25 01:43:02;;;;;;;3.63;1.60;;;16.00;99.90;;;;;;5055940;28;20964;-80
2021/08/25 01:45:28;;;;;;;2.30;1.30;;;16.10;99.90;;;;;;5051996;28;20169;-81
2021/08/25 01:47:54;;;;;;;2.57;1.73;;;16.00;99.90;;;;;;5052274;28;20568;-80
2021/08/25 01:50:20;;;;;;;5.07;2.10;;;16.00;99.90;;;;;;5052252;28;20275;-81
2021/08/25 01:52:46;;;;;;;3.50;1.90;;;16.00;99.90;;;;;;5034260;28;20205;-80
2021/08/25 01:55:11;;;;;;;2.07;1.17;;;16.00;99.90;;;;;;5051709;28;20209;-80
2021/08/25 01:57:37;;;;;;;2.33;1.50;;;15.90;99.90;;;;;;5052077;28;20580;-80
2021/08/25 02:00:04;;;;;;;2.73;1.63;;;15.90;99.90;;;;;;5051943;28;20160;-80
2021/08/25 02:02:31;;;;;;;2.60;1.57;;;15.90;99.90;;;;;;5052570;28;20200;-80
2021/08/25 02:04:57;;;;;;;2.23;1.40;;;15.90;99.90;;;;;;5034655;28;20576;-80
2021/08/25 02:07:22;;;;;;;2.60;1.40;;;15.80;99.90;;;;;;5052182;28;20189;-80
2021/08/25 02:09:48;;;;;;;3.23;1.60;;;15.80;99.90;;;;;;5051396;28;20243;-80
2021/08/25 02:12:14;;;;;;;3.60;1.93;;;15.80;99.90;;;;;;5050525;28;20201;-80
2021/08/25 02:14:39;;;;;;;4.03;1.53;;;15.80;99.90;;;;;;5050142;28;20184;-80
2021/08/25 02:17:09;;;;;;;3.47;1.80;;;15.80;99.90;;;;;;5047859;28;20304;-81
2021/08/25 02:19:34;;;;;;;3.72;1.63;;;15.80;99.90;;;;;;5036204;28;20173;-80
2021/08/25 02:22:00;;;;;;;2.30;1.70;;;15.70;99.90;;;;;;5032051;28;20330;-81
2021/08/25 02:24:26;;;;;;;3.95;1.60;;;15.70;99.90;;;;;;5031667;28;20189;-80
2021/08/25 02:26:52;;;;;;;3.27;1.50;;;15.70;99.90;;;;;;5013951;28;20252;-81
2021/08/25 02:29:18;;;;;;;2.70;1.63;;;15.60;99.90;;;;;;5051313;23;20607;-79
2021/08/25 02:31:44;;;;;;;3.47;1.80;;;15.60;99.90;;;;;;5057837;28;20197;-80
2021/08/25 02:34:09;;;;;;;3.40;2.10;;;15.60;99.90;;;;;;5058835;28;20176;-80
2021/08/25 02:36:35;;;;;;;3.00;1.63;;;15.50;99.90;;;;;;5049940;28;20191;-80
2021/08/25 02:39:01;;;;;;;4.73;1.93;;;15.50;99.90;;;;;;5049005;28;20219;-80
2021/08/25 02:41:27;;;;;;;2.95;1.83;;;15.50;99.90;;;;;;5055619;28;20231;-80
2021/08/25 02:43:53;;;;;;;2.57;1.33;;;15.50;99.90;;;;;;5049323;28;20664;-81
2021/08/25 02:46:19;;;;;;;4.13;2.23;;;15.40;99.90;;;;;;5043949;28;20234;-81
2021/08/25 02:48:45;;;;;;;6.60;2.10;;;15.40;99.90;;;;;;5028666;28;20621;-80
2021/08/25 02:51:11;;;;;;;4.53;2.53;;;15.40;99.90;;;;;;5061306;28;20164;-80
2021/08/25 02:53:36;;;;;;;2.90;1.70;;;15.40;99.90;;;;;;5062171;28;20196;-81
2021/08/25 02:56:03;;;;;;;4.00;2.10;;;15.30;99.90;;;;;;5062989;28;20687;-79
2021/08/25 02:58:28;;;;;;;3.03;2.42;;;15.30;99.90;;;;;;5056475;28;20563;-80
2021/08/25 03:00:54;;;;;;;3.23;2.17;;;15.30;99.90;;;;;;5065939;28;20173;-81
2021/08/25 03:03:21;;;;;;;3.13;1.93;;;15.30;99.90;;;;;;5066423;28;20222;-81
2021/08/25 03:05:46;;;;;;;2.60;1.75;;;15.30;99.90;;;;;;5051853;28;20599;-81
2021/08/25 03:08:12;;;;;;;3.00;2.03;;;15.20;99.90;;;;;;5067698;28;20168;-81
2021/08/25 03:10:38;;;;;;;4.47;2.60;;;15.20;99.90;;;;;;5090780;28;20598;-80
2021/08/25 03:13:04;;;;;;;2.37;1.73;;;15.20;99.90;;;;;;5063597;28;20663;-80
2021/08/25 03:15:30;;;;;;;3.30;1.80;;;15.10;99.90;;;;;;5065846;28;20589;-81
2021/08/25 03:17:56;;;;;;;3.60;2.10;;;15.10;99.90;;;;;;5066869;28;20579;-80
2021/08/25 03:20:21;;;;;;;2.60;1.70;;;15.10;99.90;;;;;;5087114;28;20605;-79
2021/08/25 03:22:47;;;;;;;5.70;2.10;;;15.10;99.90;;;;;;5095191;28;20179;-79
2021/08/25 03:25:14;;;;;;;2.80;2.07;;;15.10;99.90;;;;;;5080674;28;20587;-79
2021/08/25 03:27:40;;;;;;;3.63;2.10;;;15.10;99.90;;;;;;5075495;28;20184;-80
2021/08/25 03:30:06;;;;;;;3.88;2.38;;;15.10;99.90;;;;;;5052106;28;20216;-80
2021/08/25 03:32:31;;;;;;;3.65;1.85;;;15.10;99.90;;;;;;5062736;28;20192;-79
2021/08/25 03:34:57;;;;;;;2.97;1.60;;;15.10;99.90;;;;;;5057351;28;20218;-80
2021/08/25 03:37:23;;;;;;;4.40;2.23;;;15.00;99.90;;;;;;5075865;28;20528;-80
2021/08/25 03:39:48;;;;;;;2.60;2.10;;;15.00;99.90;;;;;;5075639;28;20547;-80
2021/08/25 03:42:14;;;;;;;4.27;1.90;;;15.00;99.90;;;;;;5057989;28;20211;-80
2021/08/25 03:44:40;;;;;;;2.90;1.70;;;15.00;99.90;;;;;;5057187;28;20188;-79
2021/08/25 03:47:07;;;;;;;4.00;1.58;;;15.00;99.90;;;;;;5074502;28;20171;-80
2021/08/25 03:49:34;;;;;;;3.47;2.22;;;15.00;99.90;;;;;;5056930;28;20188;-80
2021/08/25 03:52:00;;;;;;;3.85;2.10;;;14.90;99.90;;;;;;5075352;28;20204;-80
2021/08/25 03:54:29;;;;;;;2.38;1.70;;;14.90;99.90;;;;;;5074011;28;20172;-80
2021/08/25 03:56:56;;;;;;;2.72;1.70;;;14.90;99.90;;;;;;5056189;28;20207;-81
2021/08/25 03:59:22;;;;;;;3.60;1.90;;;14.80;99.90;;;;;;5073375;28;20188;-80
2021/08/25 04:01:49;;;;;;;5.80;2.25;;;14.80;99.90;;;;;;5072597;28;20511;-80
2021/08/25 04:04:16;;;;;;;4.70;2.03;;;14.80;99.90;;;;;;5072579;28;20164;-80
2021/08/25 04:06:42;;;;;;;2.95;1.60;;;14.80;99.90;;;;;;5055796;28;20172;-81
2021/08/25 04:09:08;;;;;;;3.00;2.05;;;14.70;99.90;;;;;;5073629;28;20199;-80
2021/08/25 04:11:34;;;;;;;2.70;1.63;;;14.70;99.90;;;;;;5055843;28;20168;-80
2021/08/25 04:14:00;;;;;;;3.70;2.37;;;14.70;99.90;;;;;;5038284;28;20640;-81
2021/08/25 04:16:27;;;;;;;4.03;1.75;;;14.70;99.90;;;;;;5054710;28;20567;-79
2021/08/25 04:18:53;;;;;;;2.38;1.85;;;14.70;99.90;;;;;;5054668;28;20271;-80
2021/08/25 04:21:19;;;;;;;3.70;2.07;;;14.70;99.90;;;;;;5072961;28;20248;-80
2021/08/25 04:23:45;;;;;;;4.75;1.83;;;14.70;99.90;;;;;;5073619;28;20242;-80
2021/08/25 04:26:11;;;;;;;2.85;1.83;;;14.70;99.90;;;;;;5073223;28;20168;-80
2021/08/25 04:28:37;;;;;;;4.07;2.30;;;14.70;99.90;;;;;;5039206;28;20531;-80
2021/08/25 04:31:03;;;;;;;3.10;2.50;;;14.70;99.90;;;;;;5073532;28;20585;-81
2021/08/25 04:33:28;;;;;;;4.37;2.30;;;14.70;99.90;;;;;;5073604;28;20200;-80
2021/08/25 04:35:54;;;;;;;3.57;1.90;;;14.70;99.90;;;;;;5055538;28;20570;-80
2021/08/25 04:38:20;;;;;;;3.93;2.17;;;14.70;99.90;;;;;;5073590;28;20902;-80
2021/08/25 04:40:46;;;;;;;3.87;2.07;;;14.70;99.90;;;;;;5055037;28;20348;-80
2021/08/25 04:43:12;;;;;;;2.40;1.73;;;14.70;99.90;;;;;;5073489;28;20259;-80
2021/08/25 04:45:43;;;;;;;7.40;2.27;;;14.70;99.90;;;;;;5072889;28;20998;-79
2021/08/25 04:48:09;;;;;;;6.13;3.10;;;14.70;99.90;;;;;;5073067;28;20574;-80
2021/08/25 04:50:35;;;;;;;4.33;2.57;;;14.70;99.90;;;;;;5038484;28;20196;-80
2021/08/25 04:53:00;;;;;;;5.40;2.50;;;14.80;99.90;;;;;;5055367;28;20195;-79
2021/08/25 04:55:26;;;;;;;5.43;2.40;;;14.80;99.90;;;;;;5072952;28;20513;-80
2021/08/25 04:57:52;;;;;;;7.40;2.73;;;14.80;99.90;;;;;;5055619;28;20569;-80
2021/08/25 05:00:18;;;;;;;3.50;2.40;;;14.80;99.90;;;;;;5055652;28;20180;-81
2021/08/25 05:02:44;;;;;;;6.33;2.73;;;14.80;99.90;;;;;;5054674;28;20183;-81
2021/08/25 05:05:10;;;;;;;5.73;3.00;;;14.80;99.90;;;;;;5038482;28;20563;-80
2021/08/25 05:07:35;;;;;;;4.90;3.17;;;14.80;99.90;;;;;;5071478;28;20168;-80
2021/08/25 05:10:02;;;;;;;4.63;2.23;;;14.90;99.90;;;;;;5054768;28;20844;-80
2021/08/25 05:12:27;;;;;;;4.28;2.63;;;14.90;99.90;;;;;;5054570;28;20192;-80
2021/08/25 05:14:53;;;;;;;4.50;2.50;;;14.90;99.90;;;;;;5072398;28;20210;-80
2021/08/25 05:17:19;;;;;;;3.90;2.40;;;15.00;99.90;;;;;;5037235;28;20176;-80
2021/08/25 05:19:45;;;;;;;6.15;2.33;;;15.00;99.90;;;;;;5021428;28;20255;-81
2021/08/25 05:22:10;;;;;;;5.17;3.30;;;15.10;99.90;;;;;;5072283;28;20152;-79
2021/08/25 05:24:36;;;;;;;4.30;2.27;;;15.10;99.90;;;;;;5072752;28;20167;-80
2021/08/25 05:27:03;;;;;;;4.93;2.77;;;15.20;99.90;;;;;;5072779;28;20548;-79
2021/08/25 05:29:29;;;;;;;3.33;2.20;;;15.30;99.90;;;;;;5073994;28;20196;-80
2021/08/25 05:31:54;;;;;;;2.90;2.30;;;15.30;99.90;;;;;;5056437;28;20706;-80
2021/08/25 05:34:20;;;;;;;4.00;2.40;;;15.40;99.90;;;;;;5074043;28;20164;-81
2021/08/25 05:36:46;;;;;;;5.20;2.40;;;15.40;99.90;;;;;;5074458;28;20168;-80
2021/08/25 05:39:12;;;;;;;3.97;2.93;;;15.50;99.90;;;;;;5038256;28;20184;-80
2021/08/25 05:41:37;;;;;;;3.83;2.37;;;15.50;99.90;;;;;;5055568;28;20253;-79
2021/08/25 05:44:04;;;;;;;4.10;3.13;;;15.60;99.90;;;;;;5072178;28;20180;-79
2021/08/25 05:46:34;;;;;;;9.43;2.80;;;15.70;99.90;;;;;;5037204;28;20666;-80
2021/08/25 05:49:00;;;;;;;3.13;2.50;;;15.70;99.90;;;;;;5053948;28;20200;-80
2021/08/25 05:51:27;;;;;;;5.13;2.47;;;15.80;99.90;;;;;;5054104;28;20582;-79
2021/08/25 05:53:53;;;;;;;4.20;2.37;;;15.90;99.90;;;;;;5052804;28;20594;-80
2021/08/25 05:56:19;;;;;;;3.60;2.30;;;16.00;99.90;;;;;;5036855;28;21082;-80
2021/08/25 05:58:45;;;;;;;7.10;2.03;;;16.10;99.90;;;;;;5071680;28;20645;-80
2021/08/25 06:01:15;;;;;;;2.60;2.20;;;16.10;99.90;;;;;;5053748;28;20606;-81
2021/08/25 06:03:41;;;;;;;3.13;2.30;;;16.20;99.90;;;;;;5050556;28;20602;-80
2021/08/25 06:06:07;;;;;;;3.67;1.80;;;16.30;99.90;;;;;;5032342;28;21193;-80
2021/08/25 06:08:33;;;;;;;3.92;2.22;;;16.40;99.90;;;;;;5051085;28;20564;-82
2021/08/25 06:10:59;;;;;;;3.83;1.90;;;16.60;99.90;;;;;;5051120;28;20231;-81
2021/08/25 06:13:25;;;;;;;4.47;2.83;;;16.70;99.90;;;;;;5032502;28;20535;-80
2021/08/25 06:15:51;;;;;;;4.43;2.50;;;16.80;99.90;;;;;;5032589;28;20584;-80
2021/08/25 06:18:16;;;;;;;6.90;2.20;;;16.90;99.90;;;;;;5037438;28;20560;-81
2021/08/25 06:20:42;;;;;;;5.60;3.10;;;17.00;99.90;;;;;;5032783;28;20188;-82
2021/08/25 06:23:08;;;;;;;10.23;2.80;;;17.20;99.90;;;;;;5051399;28;20169;-81
2021/08/25 06:25:34;;;;;;;4.30;2.70;;;17.30;99.90;;;;;;5050674;28;20176;-81
2021/08/25 06:28:01;;;;;;;4.53;3.20;;;17.40;99.90;;;;;;5033105;28;20189;-80
2021/08/25 06:30:27;;;;;;;4.63;3.00;;;17.60;99.90;;;;;;5016423;28;20623;-81
2021/08/25 06:32:53;;;;;;;3.90;2.53;;;17.90;99.90;;;;;;5051009;28;20619;-81
2021/08/25 06:35:20;;;;;;;7.37;3.50;;;18.50;99.90;;;;;;5051067;28;21080;-81
2021/08/25 06:37:49;;;;;;;4.80;2.97;;;19.20;99.90;;;;;;5051416;28;20571;-81
2021/08/25 06:40:15;;;;;;;4.40;3.33;;;20.00;99.90;;;;;;5016918;28;20614;-81
2021/08/25 06:42:42;;;;;;;4.30;2.77;;;20.80;99.90;;;;;;5051019;28;20563;-81
2021/08/25 06:45:09;;;;;;;3.13;2.60;;;21.60;99.90;;;;;;5051470;28;20579;-81
2021/08/25 06:47:35;;;;;;;5.40;2.60;;;22.50;99.90;;;;;;5034102;28;20627;-80
2021/08/25 06:50:01;;;;;;;4.43;2.53;;;23.30;99.90;;;;;;5034391;28;20614;-81
2021/08/25 06:52:27;;;;;;;5.00;2.33;;;24.10;99.90;;;;;;5033832;28;20623;-81
2021/08/25 06:54:52;;;;;;;2.60;1.77;;;25.00;99.90;;;;;;5039272;28;20179;-81
2021/08/25 06:57:18;;;;;;;3.20;1.90;;;25.70;99.90;;;;;;5033708;28;20172;-81
2021/08/25 06:59:45;;;;;;;4.83;2.13;;;26.20;99.90;;;;;;5033455;28;20180;-79
2021/08/25 07:02:10;;;;;;;3.40;2.13;;;26.70;99.90;;;;;;5051293;28;20196;-81
2021/08/25 07:04:36;;;;;;;3.63;3.17;;;27.20;99.90;;;;;;5050698;28;20658;-81
2021/08/25 07:07:02;;;;;;;6.10;3.20;;;27.70;99.90;;;;;;5017379;28;20173;-81
2021/08/25 07:09:27;;;;;;;3.93;3.13;;;28.40;99.90;;;;;;5051075;28;20258;-80
2021/08/25 07:11:53;;;;;;;4.77;2.43;;;29.10;99.90;;;;;;5033364;28;20281;-80
2021/08/25 07:14:19;;;;;;;4.73;2.50;;;29.90;99.90;;;;;;5051029;28;20181;-80
2021/08/25 07:16:45;;;;;;;4.10;2.60;;;30.60;99.90;;;;;;5050589;28;20181;-81
2021/08/25 07:19:10;;;;;;;3.97;1.80;;;31.10;98.10;;;;;;5053025;28;20223;-82
2021/08/25 07:21:36;;;;;;;4.37;2.90;;;31.40;95.90;;;;;;5054789;28;20165;-81
2021/08/25 07:24:03;;;;;;;6.87;2.67;;;31.70;94.50;;;;;;5036501;28;20169;-81
2021/08/25 07:26:29;;;;;;;5.67;2.40;;;32.00;93.30;;;;;;5053211;28;20186;-80
2021/08/25 07:28:55;;;;;;;2.83;1.77;;;32.40;92.10;;;;;;5019473;28;21273;-81
2021/08/25 07:31:21;;;;;;;3.00;2.07;;;32.90;90.80;;;;;;5040192;28;20564;-81
2021/08/25 07:33:47;;;;;;;3.00;2.43;;;33.30;89.00;;;;;;5019033;28;20698;-81
2021/08/25 07:36:13;;;;;;;4.93;2.50;;;33.80;86.80;;;;;;5050704;28;20171;-80
2021/08/25 07:38:39;;;;;;;2.77;1.70;;;34.10;82.90;;;;;;5034775;28;20578;-82
2021/08/25 07:41:04;;;;;;;3.00;2.20;;;34.40;80.90;;;;;;5020971;28;20218;-81
2021/08/25 07:43:30;;;;;;;3.83;2.70;;;34.70;78.60;;;;;;5056690;28;20172;-80
2021/08/25 07:45:56;;;;;;;2.87;2.03;;;35.00;76.40;;;;;;5054534;28;20181;-80
2021/08/25 07:48:22;;;;;;;4.43;2.13;;;35.40;74.40;;;;;;5054311;28;20588;-79
2021/08/25 07:50:49;;;;;;;5.70;2.13;;;35.80;72.00;;;;;;5054279;28;20189;-79
2021/08/25 07:53:16;;;;;;;3.10;1.80;;;36.10;70.40;;;;;;5054105;28;20263;-80
2021/08/25 07:55:42;;;;;;;3.20;2.00;;;36.50;68.50;;;;;;5054116;28;20579;-80
2021/08/25 07:58:08;;;;;;;2.77;2.17;;;36.90;66.20;;;;;;5054094;28;20631;-80
2021/08/25 08:00:33;;;;;;;2.80;2.10;;;37.20;64.10;;;;;;5036793;28;20192;-82
2021/08/25 08:02:59;;;;;;;3.60;2.43;;;37.40;61.80;;;;;;5035996;28;20252;-82
2021/08/25 08:05:25;;;;;;;2.63;2.37;;;37.70;59.90;;;;;;5037090;28;20173;-82
2021/08/25 08:07:51;;;;;;;2.43;1.70;;;37.80;58.60;;;;;;5040131;28;20209;-82
2021/08/25 08:10:16;;;;;;;3.70;2.50;;;37.90;57.40;;;;;;5023901;28;20220;-80
2021/08/25 08:12:42;;;;;;;2.40;2.00;;;38.10;56.60;;;;;;5022316;28;20185;-80
2021/08/25 08:15:12;;;;;;;3.87;2.70;;;38.30;56.10;;;;;;5055896;28;20176;-82
2021/08/25 08:17:41;;;;;;;3.00;2.27;;;38.50;55.20;;;;;;5056018;28;20935;-80
2021/08/25 08:20:07;;;;;;;3.13;2.10;;;38.70;54.20;;;;;;5037088;28;20677;-80
2021/08/25 08:22:33;;;;;;;2.13;1.60;;;38.90;53.40;;;;;;5037011;28;20688;-79
2021/08/25 08:25:00;;;;;;;3.80;2.00;;;39.10;52.30;;;;;;5021120;28;21154;-80
2021/08/25 08:27:26;;;;;;;3.40;2.00;;;39.20;51.50;;;;;;5057086;28;20577;-80
2021/08/25 08:29:52;;;;;;;2.73;2.40;;;39.40;50.90;;;;;;5038758;28;20615;-83
2021/08/25 08:32:17;;;;;;;5.30;2.37;;;39.60;50.30;;;;;;5057603;28;20200;-83
2021/08/25 08:34:43;;;;;;;3.27;2.00;;;39.70;49.90;;;;;;5057004;28;20168;-83
2021/08/25 08:37:09;;;;;;;3.00;2.33;;;39.80;49.20;;;;;;5061210;28;20185;-84
2021/08/25 08:39:35;;;;;;;4.07;2.07;;;39.90;48.30;;;;;;5049050;28;20200;-83
2021/08/25 08:42:01;;;;;;;4.17;2.57;;;39.70;47.40;;;;;;5033131;28;20263;-85
2021/08/25 08:44:27;;;;;;;2.17;1.70;;;39.60;47.00;;;;;;5052086;28;20161;-84
2021/08/25 08:46:53;;;;;;;4.27;2.33;;;39.60;46.80;;;;;;5062322;28;20596;-84
2021/08/25 08:49:19;;;;;;;4.37;2.20;;;39.70;46.90;;;;;;5028659;28;20685;-85
2021/08/25 08:51:45;;;;;;;2.83;2.23;;;39.80;46.40;;;;;;5027243;28;20592;-83
2021/08/25 08:54:11;;;;;;;2.80;2.00;;;40.00;46.10;;;;;;5053510;28;20184;-81
2021/08/25 08:56:38;;;;;;;5.83;2.30;;;40.20;45.70;;;;;;5042712;28;20586;-82
2021/08/25 08:59:04;;;;;;;2.80;2.20;;;40.30;45.20;;;;;;5022448;28;20642;-83
2021/08/25 09:01:31;;;;;;;5.40;2.40;;;40.40;45.10;;;;;;5036923;28;20568;-82
2021/08/25 09:03:57;;;;;;;4.23;1.70;;;40.60;45.40;;;;;;5037795;28;20560;-82
2021/08/25 09:06:43;;;;;;;3.57;2.20;;;40.80;44.30;;;;;;5054957;28;20922;-81
2021/08/25 09:09:12;;;;;;;2.87;1.90;;;40.90;44.10;;;;;;5038331;28;20669;-83
2021/08/25 09:11:52;;;;;;;3.43;1.67;;;41.00;42.80;;;;;;5055012;28;20556;-83
2021/08/25 09:14:18;;;;;;;4.43;1.73;;;41.00;43.00;;;;;;5036361;28;21007;-82
2021/08/25 09:16:45;;;;;;;2.83;1.73;;;41.10;42.90;;;;;;5035672;28;20651;-85
2021/08/25 09:19:14;;;;;;;3.33;1.77;;;41.20;42.70;;;;;;5053380;28;20268;-82
2021/08/25 09:21:42;;;;;;;3.17;1.47;;;41.30;42.40;;;;;;5019511;28;20606;-81
2021/08/25 09:24:10;;;;;;;3.20;1.67;;;41.40;42.10;;;;;;5037741;28;20583;-81
2021/08/25 09:26:38;;;;;;;2.30;2.00;;;41.40;41.50;;;;;;5053591;28;20931;-82
2021/08/25 09:29:18;;;;;;;1.87;1.37;;;41.40;40.60;;;;;;5050390;28;20688;-82
2021/08/25 09:31:45;;;;;;;2.30;1.60;;;41.50;41.10;;;;;;5041055;28;20592;-82
2021/08/25 09:34:27;;;;;;;3.13;1.47;;;41.50;40.70;;;;;;5043831;28;20678;-83
2021/08/25 09:37:11;;;;;;;3.10;1.60;;;41.60;40.90;;;;;;5007537;28;20592;-82
2021/08/25 09:39:42;;;;;;;2.00;1.50;;;41.70;40.60;;;;;;5056540;28;20642;-82
2021/08/25 09:42:08;;;;;;;4.93;1.50;;;41.80;40.20;;;;;;5042425;28;20667;-81
2021/08/25 09:44:34;;;;;;;1.60;1.10;;;41.70;39.70;;;;;;5059758;28;20589;-82
2021/08/25 09:46:59;;;;;;;2.53;1.30;;;41.80;39.30;;;;;;5061772;28;20596;-84
2021/08/25 09:49:25;;;;;;;2.07;1.40;;;41.90;39.00;;;;;;5045905;28;20196;-83
2021/08/25 09:51:54;;;;;;;1.97;1.23;;;41.80;38.50;;;;;;5072022;28;20204;-83
2021/08/25 09:54:20;;;;;;;1.93;1.40;;;41.90;38.20;;;;;;5072323;28;20613;-82
2021/08/25 09:56:50;;;;;;;1.60;1.20;;;41.80;37.30;;;;;;5053816;28;20582;-84
2021/08/25 09:59:16;;;;;;;2.20;1.47;;;41.70;37.70;;;;;;5075560;28;20609;-84
2021/08/25 10:01:42;;;;;;;2.30;1.47;;;41.60;36.70;;;;;;5071510;28;20571;-83
2021/08/25 10:04:11;;;;;;;2.40;1.73;;;41.50;36.40;;;;;;5071817;28;20168;-83
2021/08/25 10:06:39;;;;;;;4.03;1.77;;;41.50;36.70;;;;;;5037468;28;20647;-83
2021/08/25 10:09:08;;;;;;;1.87;1.40;;;41.50;36.50;;;;;;5037427;28;20602;-83
2021/08/25 10:11:37;;;;;;;3.80;1.50;;;41.30;35.60;;;;;;5036977;28;20943;-81
2021/08/25 10:14:17;;;;;;;3.53;2.03;;;41.20;35.60;;;;;;5071755;28;20917;-82
2021/08/25 10:16:48;;;;;;;3.40;1.60;;;41.20;35.90;;;;;;5053652;28;20957;-82
2021/08/25 10:19:25;;;;;;;2.10;1.60;;;41.20;35.90;;;;;;5071964;28;20660;-82
2021/08/25 10:21:53;;;;;;;2.87;1.40;;;41.30;36.10;;;;;;5071758;28;20621;-84
2021/08/25 10:24:19;;;;;;;3.63;1.60;;;41.30;36.10;;;;;;5053883;28;20949;-84
2021/08/25 10:27:06;;;;;;;2.60;1.40;;;41.40;35.70;;;;;;5053983;28;20579;-84
2021/08/25 10:29:33;;;;;;;4.07;1.70;;;41.40;35.80;;;;;;5036963;28;20610;-83
2021/08/25 10:31:59;;;;;;;2.40;1.40;;;41.30;35.60;;;;;;5073078;28;20567;-83
2021/08/25 10:34:27;;;;;;;2.70;1.67;;;41.20;35.00;;;;;;5072578;28;20566;-82
2021/08/25 10:37:11;;;;;;;2.10;1.60;;;41.10;34.60;;;;;;5061983;28;21142;-82
2021/08/25 10:39:39;;;;;;;2.03;1.40;;;41.00;32.20;;;;;;5090144;28;20602;-82
2021/08/25 10:42:07;;;;;;;2.23;1.43;;;40.50;34.20;;;;;;5057443;28;21046;-82
2021/08/25 10:44:41;;;;;;;2.77;1.67;;;40.20;34.90;;;;;;5072782;28;20933;-82
2021/08/25 10:47:09;;;;;;;2.77;1.70;;;39.90;34.40;;;;;;5053643;28;20567;-83
2021/08/25 10:49:38;;;;;;;2.70;2.10;;;39.70;34.70;;;;;;5053739;28;20613;-83
2021/08/25 10:52:13;;;;;;;2.00;1.50;;;39.30;33.80;;;;;;5053470;28;20938;-82
2021/08/25 10:54:39;;;;;;;2.20;1.50;;;38.80;33.90;;;;;;5070954;28;20554;-82
2021/08/25 10:57:10;;;;;;;1.97;1.60;;;38.50;34.80;;;;;;5054233;28;20620;-85
2021/08/25 10:59:36;;;;;;;1.97;1.47;;;38.30;34.90;;;;;;5053674;28;21052;-82
2021/08/25 11:02:02;;;;;;;2.20;1.70;;;38.30;35.30;;;;;;5055961;28;20989;-82
2021/08/25 11:04:29;;;;;;;2.20;1.70;;;38.20;35.40;;;;;;5076525;28;20555;-81
2021/08/25 11:06:58;;;;;;;2.87;1.50;;;38.10;34.70;;;;;;5060153;28;20562;-82
2021/08/25 11:09:36;;;;;;;3.03;1.67;;;38.00;34.80;;;;;;5077616;28;20702;-80
2021/08/25 11:12:10;;;;;;;3.30;1.77;;;37.80;33.50;;;;;;5079166;28;20623;-80
2021/08/25 11:14:50;;;;;;;3.17;1.83;;;37.40;34.20;;;;;;5060770;28;20582;-83
2021/08/25 11:17:18;;;;;;;2.40;1.50;;;37.20;34.30;;;;;;5062578;28;20627;-83
2021/08/25 11:20:03;;;;;;;2.40;1.70;;;37.10;34.60;;;;;;5059815;28;20612;-83
2021/08/25 11:22:37;;;;;;;2.37;1.43;;;37.00;34.50;;;;;;5059618;28;20646;-81
2021/08/25 11:25:06;;;;;;;2.70;2.00;;;36.90;34.80;;;;;;5078790;28;20672;-82
2021/08/25 11:27:37;;;;;;;2.70;1.73;;;36.80;34.70;;;;;;5052784;28;20949;-80
2021/08/25 11:30:08;;;;;;;3.93;1.90;;;36.60;34.50;;;;;;5063882;28;20658;-83
2021/08/25 11:32:43;;;;;;;4.23;2.13;;;36.50;35.20;;;;;;5060504;28;20616;-83
2021/08/25 11:35:10;;;;;;;2.70;2.23;;;36.30;35.00;;;;;;5097180;28;20718;-80
2021/08/25 11:37:36;;;;;;;3.57;1.90;;;36.30;35.30;;;;;;5058536;28;20577;-79
2021/08/25 11:40:05;;;;;;;2.60;1.77;;;36.20;35.40;;;;;;5057552;28;20598;-80
2021/08/25 11:42:33;;;;;;;3.27;2.40;;;36.20;35.70;;;;;;5075542;28;20290;-80
2021/08/25 11:44:59;;;;;;;3.20;2.30;;;36.10;35.10;;;;;;5091574;28;20916;-80
2021/08/25 11:47:25;;;;;;;1.97;1.43;;;36.00;35.20;;;;;;5066428;28;20935;-79
2021/08/25 11:49:57;;;;;;;3.70;2.40;;;35.90;35.30;;;;;;5081715;28;20594;-80
2021/08/25 11:52:35;;;;;;;2.53;1.73;;;35.80;35.10;;;;;;5057947;28;20575;-81
2021/08/25 11:55:02;;;;;;;2.50;1.80;;;35.60;35.20;;;;;;5075510;28;21024;-80
2021/08/25 11:57:45;;;;;;;3.00;1.97;;;35.50;35.40;;;;;;5058512;28;20971;-81
2021/08/25 12:00:13;;;;;;;2.30;1.80;;;35.30;35.30;;;;;;5041082;28;20965;-80
2021/08/25 12:02:57;;;;;;;5.23;2.10;;;35.00;35.40;;;;;;5060477;28;20676;-80
2021/08/25 12:05:30;;;;;;;5.00;2.10;;;34.70;35.80;;;;;;5095213;28;20572;-81
2021/08/25 12:08:05;;;;;;;7.10;2.17;;;34.60;36.30;;;;;;5077014;28;21012;-80
2021/08/25 12:10:31;;;;;;;4.47;2.33;;;34.40;36.50;;;;;;5096596;28;21027;-82
2021/08/25 12:13:58;;;;;;;;;;;;;;;;;;;;;
2021/08/25 12:17:11;;;;;;;3.67;2.23;;;34.10;36.50;;;;;;5050542;28;20606;-80
2021/08/25 12:19:37;;;;;;;3.33;2.37;;;33.80;36.50;;;;;;5074143;28;20642;-79
2021/08/25 12:22:25;;;;;;;4.00;2.03;;;33.60;36.60;;;;;;5055676;28;21211;-79
2021/08/25 12:24:51;;;;;;;3.70;2.33;;;33.30;36.70;;;;;;5075298;28;20561;-79
2021/08/25 12:27:17;;;;;;;2.67;1.80;;;33.10;37.20;;;;;;5060353;28;20574;-80
2021/08/25 12:29:44;;;;;;;2.83;2.23;;;32.90;37.20;;;;;;5056485;28;20632;-79
2021/08/25 12:32:11;;;;;;;3.50;2.10;;;32.70;37.10;;;;;;5057144;28;20176;-78
2021/08/25 12:35:00;;;;;;;4.33;2.40;;;32.60;37.40;;;;;;5039403;28;20563;-78
2021/08/25 12:37:49;;;;;;;3.47;2.80;;;32.40;38.00;;;;;;5055179;28;20610;-78
2021/08/25 12:40:19;;;;;;;2.43;1.90;;;32.30;37.70;;;;;;5055159;28;20603;-79
2021/08/25 12:42:45;;;;;;;5.50;2.10;;;32.30;38.00;;;;;;5055378;28;20623;-77
2021/08/25 12:45:14;;;;;;;4.67;2.60;;;32.10;37.60;;;;;;5074212;28;20944;-77
2021/08/25 12:47:43;;;;;;;3.50;2.97;;;31.90;37.90;;;;;;5074341;28;20659;-78
2021/08/25 12:50:09;;;;;;;3.20;2.00;;;31.70;37.70;;;;;;5084342;28;20620;-78
2021/08/25 12:52:35;;;;;;;4.67;2.83;;;31.50;38.00;;;;;;5067247;28;20589;-77